Time;durP1;ratioP1;P1;durP2;ratioP2;P2;SDS_P1;SDS_P2;PMS_P1;PMS_P2;Temp;Humidity;BMP_temperature;BMP_pressure;BME280_temperature;BME280_humidity;BME280_pressure;Samples;Min_cycle;Max_cycle;Signal;HPM_P1;HPM_P2
2022/05/26 00:00:51;;;;;;;0.10;0.10;;;;;;;;;;5046386;28;20043;-90
2022/05/26 00:03:17;;;;;;;0.10;0.10;;;;;;;;;;5045739;28;20045;-90
2022/05/26 00:05:43;;;;;;;0.20;0.20;;;;;;;;;;5046031;28;20040;-93
2022/05/26 00:08:09;;;;;;;0.05;0.05;;;;;;;;;;5045891;28;20071;-93
2022/05/26 00:10:35;;;;;;;0.10;0.10;;;;;;;;;;5046401;28;20095;-94
2022/05/26 00:13:01;;;;;;;0.20;0.20;;;;;;;;;;5046760;28;20038;-94
2022/05/26 00:15:27;;;;;;;0.10;0.10;;;;;;;;;;5039011;28;20048;-93
2022/05/26 00:17:54;;;;;;;0.10;0.10;;;;;;;;;;5046544;28;20055;-93
2022/05/26 00:20:20;;;;;;;0.10;0.10;;;;;;;;;;5047272;28;20059;-93
2022/05/26 00:22:47;;;;;;;0.10;0.10;;;;;;;;;;5046951;28;20066;-93
2022/05/26 00:25:13;;;;;;;0.10;0.10;;;;;;;;;;5047806;28;20040;-94
2022/05/26 00:27:39;;;;;;;0.10;0.10;;;;;;;;;;5047223;28;20048;-93
2022/05/26 00:30:06;;;;;;;0.10;0.10;;;;;;;;;;5049167;28;20045;-95
2022/05/26 00:32:32;;;;;;;0.10;0.10;;;;;;;;;;5049696;28;20231;-93
2022/05/26 00:34:58;;;;;;;0.00;0.00;;;;;;;;;;5048021;28;20043;-94
2022/05/26 00:37:25;;;;;;;0.00;0.00;;;;;;;;;;5051080;28;20079;-93
2022/05/26 00:39:51;;;;;;;0.08;0.08;;;;;;;;;;5051765;28;20037;-94
2022/05/26 00:42:17;;;;;;;0.10;0.10;;;;;;;;;;5050725;28;20071;-94
2022/05/26 00:44:43;;;;;;;0.20;0.20;;;;;;;;;;5050543;28;20047;-94
2022/05/26 00:47:14;;;;;;;0.10;0.10;;;;;;;;;;5051714;28;20044;-94
2022/05/26 00:49:44;;;;;;;0.10;0.10;;;;;;;;;;5050960;28;20048;-93
2022/05/26 00:52:15;;;;;;;0.20;0.20;;;;;;;;;;5049748;28;20048;-94
2022/05/26 00:54:42;;;;;;;0.10;0.10;;;;;;;;;;5048216;28;20041;-94
2022/05/26 00:57:15;;;;;;;0.10;0.10;;;;;;;;;;5048560;28;20048;-93
2022/05/26 01:00:00;;;;;;;0.10;0.10;;;;;;;;;;5050996;28;20043;-93
2022/05/26 01:02:34;;;;;;;0.20;0.20;;;;;;;;;;5048107;28;20040;-93
2022/05/26 01:05:02;;;;;;;0.20;0.20;;;;;;;;;;5045781;28;20037;-92
2022/05/26 01:07:31;;;;;;;0.20;0.20;;;;;;;;;;5048155;28;20052;-94
2022/05/26 01:09:58;;;;;;;0.10;0.10;;;;;;;;;;5064514;28;20110;-93
2022/05/26 01:12:24;;;;;;;0.17;0.17;;;;;;;;;;5046769;28;20071;-94
2022/05/26 01:14:52;;;;;;;0.10;0.10;;;;;;;;;;5046068;28;20405;-93
2022/05/26 01:17:38;;;;;;;0.10;0.10;;;;;;;;;;5045473;28;20032;-92
2022/05/26 01:20:21;;;;;;;0.10;0.10;;;;;;;;;;5040256;28;20043;-92
2022/05/26 01:22:57;;;;;;;0.10;0.10;;;;;;;;;;5048171;28;20075;-93
2022/05/26 01:25:26;;;;;;;0.10;0.10;;;;;;;;;;5046201;28;20127;-91
2022/05/26 01:28:11;;;;;;;0.10;0.10;;;;;;;;;;5047900;28;20083;-93
2022/05/26 01:30:56;;;;;;;0.10;0.10;;;;;;;;;;5046580;28;20044;-92
2022/05/26 01:33:29;;;;;;;0.00;0.00;;;;;;;;;;5044971;28;20040;-92
2022/05/26 01:36:13;;;;;;;0.05;0.05;;;;;;;;;;5044446;28;20045;-92
2022/05/26 01:38:48;;;;;;;0.10;0.10;;;;;;;;;;5045343;28;20096;-93
2022/05/26 01:41:26;;;;;;;0.00;0.00;;;;;;;;;;5047986;28;20040;-93
2022/05/26 01:44:10;;;;;;;0.00;0.00;;;;;;;;;;5038860;28;20413;-93
2022/05/26 01:46:40;;;;;;;0.05;0.05;;;;;;;;;;5044600;28;20063;-93
2022/05/26 01:49:25;;;;;;;0.00;0.00;;;;;;;;;;5044173;28;20075;-93
2022/05/26 01:51:51;;;;;;;0.10;0.10;;;;;;;;;;5044512;28;20044;-92
2022/05/26 01:54:20;;;;;;;0.10;0.10;;;;;;;;;;5044857;28;20045;-92
2022/05/26 01:56:53;;;;;;;0.10;0.10;;;;;;;;;;5044657;28;20397;-92
2022/05/26 01:59:22;;;;;;;0.10;0.10;;;;;;;;;;5045344;28;20041;-94
2022/05/26 02:01:52;;;;;;;0.10;0.10;;;;;;;;;;5044587;28;20044;-92
2022/05/26 02:04:21;;;;;;;0.10;0.10;;;;;;;;;;5037931;28;20108;-92
2022/05/26 02:06:57;;;;;;;0.10;0.10;;;;;;;;;;5043187;28;20036;-91
2022/05/26 02:09:26;;;;;;;0.10;0.10;;;;;;;;;;5059611;28;20402;-92
2022/05/26 02:12:05;;;;;;;0.10;0.10;;;;;;;;;;5048666;28;20089;-92
2022/05/26 02:14:36;;;;;;;0.10;0.10;;;;;;;;;;5062799;28;20056;-93
2022/05/26 02:17:06;;;;;;;0.00;0.00;;;;;;;;;;5042208;28;20037;-92
2022/05/26 02:19:34;;;;;;;0.10;0.10;;;;;;;;;;5045159;28;20060;-91
2022/05/26 02:22:03;;;;;;;0.10;0.10;;;;;;;;;;5045246;28;20131;-93
2022/05/26 02:24:32;;;;;;;0.05;0.05;;;;;;;;;;5045745;28;20036;-93
2022/05/26 02:26:58;;;;;;;0.03;0.03;;;;;;;;;;5045769;28;20398;-93
2022/05/26 02:32:10;;;;;;;0.10;0.10;;;;;;;;;;5062274;28;20041;-92
2022/05/26 02:34:37;;;;;;;0.10;0.10;;;;;;;;;;5045782;28;20083;-92
2022/05/26 02:37:04;;;;;;;0.10;0.10;;;;;;;;;;5045208;28;20047;-93
2022/05/26 02:39:30;;;;;;;0.10;0.10;;;;;;;;;;5044796;28;20079;-94
2022/05/26 02:41:57;;;;;;;0.10;0.10;;;;;;;;;;5045281;28;20036;-93
2022/05/26 02:44:24;;;;;;;0.10;0.10;;;;;;;;;;5045359;28;20045;-94
2022/05/26 02:47:07;;;;;;;0.10;0.10;;;;;;;;;;5045319;28;20044;-93
2022/05/26 02:49:42;;;;;;;0.10;0.10;;;;;;;;;;5026325;28;20041;-92
2022/05/26 02:52:08;;;;;;;0.10;0.10;;;;;;;;;;5044394;28;20043;-94
2022/05/26 02:54:41;;;;;;;0.10;0.10;;;;;;;;;;5044849;28;20464;-93
2022/05/26 02:57:10;;;;;;;0.00;0.00;;;;;;;;;;5042504;28;20043;-93
2022/05/26 02:59:42;;;;;;;0.00;0.00;;;;;;;;;;5045051;28;20047;-93
2022/05/26 03:02:08;;;;;;;0.10;0.10;;;;;;;;;;5044738;28;20119;-93
2022/05/26 03:04:40;;;;;;;0.10;0.10;;;;;;;;;;5043169;28;20068;-93
2022/05/26 03:07:09;;;;;;;0.10;0.10;;;;;;;;;;5046672;28;20044;-92
2022/05/26 03:09:36;;;;;;;0.10;0.10;;;;;;;;;;5048530;28;20043;-92
2022/05/26 03:12:03;;;;;;;0.08;0.08;;;;;;;;;;5048647;28;20135;-93
2022/05/26 03:14:29;;;;;;;0.10;0.10;;;;;;;;;;5048532;28;20040;-93
2022/05/26 03:16:55;;;;;;;0.10;0.10;;;;;;;;;;5049017;28;20075;-93
2022/05/26 03:19:21;;;;;;;0.10;0.10;;;;;;;;;;5049897;28;20044;-93
2022/05/26 03:21:48;;;;;;;0.08;0.08;;;;;;;;;;5049999;28;20044;-92
2022/05/26 03:24:14;;;;;;;0.00;0.00;;;;;;;;;;5032724;28;20048;-92
2022/05/26 03:26:40;;;;;;;0.08;0.08;;;;;;;;;;5048288;28;20040;-94
2022/05/26 03:29:07;;;;;;;0.00;0.00;;;;;;;;;;5048942;28;20037;-93
2022/05/26 03:31:33;;;;;;;0.10;0.10;;;;;;;;;;5049341;28;20042;-93
2022/05/26 03:42:16;;;;;;;0.22;0.22;;;;;;;;;;5061402;28;20048;-93
2022/05/26 03:44:43;;;;;;;0.17;0.17;;;;;;;;;;5043669;28;20043;-93
2022/05/26 03:47:09;;;;;;;0.10;0.10;;;;;;;;;;5048578;28;20104;-94
2022/05/26 03:49:35;;;;;;;0.00;0.00;;;;;;;;;;5049500;28;20036;-93
2022/05/26 03:52:01;;;;;;;0.00;0.00;;;;;;;;;;5048455;28;20082;-92
2022/05/26 03:54:30;;;;;;;0.10;0.10;;;;;;;;;;5048494;28;20045;-93
2022/05/26 03:56:56;;;;;;;0.10;0.10;;;;;;;;;;5048268;28;20421;-93
2022/05/26 03:59:22;;;;;;;0.10;0.10;;;;;;;;;;5049696;28;20041;-90
2022/05/26 04:01:50;;;;;;;0.10;0.10;;;;;;;;;;5049362;28;20048;-93
2022/05/26 04:04:17;;;;;;;0.00;0.00;;;;;;;;;;5047082;28;20040;-92
2022/05/26 04:06:43;;;;;;;0.10;0.10;;;;;;;;;;5048943;28;20071;-93
2022/05/26 04:09:09;;;;;;;0.10;0.10;;;;;;;;;;5050898;28;20032;-93
2022/05/26 04:11:35;;;;;;;0.03;0.03;;;;;;;;;;5049463;28;20036;-92
2022/05/26 04:14:01;;;;;;;0.10;0.10;;;;;;;;;;5049020;28;20115;-93
2022/05/26 04:16:27;;;;;;;0.20;0.20;;;;;;;;;;5048790;28;20039;-92
2022/05/26 04:18:53;;;;;;;0.10;0.10;;;;;;;;;;5051499;28;20040;-92
2022/05/26 04:21:21;;;;;;;0.15;0.15;;;;;;;;;;5053549;28;20055;-93
2022/05/26 04:23:47;;;;;;;0.10;0.10;;;;;;;;;;5054988;28;20089;-92
2022/05/26 04:26:13;;;;;;;0.10;0.10;;;;;;;;;;5053551;28;20041;-92
2022/05/26 04:28:39;;;;;;;0.10;0.10;;;;;;;;;;5054194;28;20038;-92
2022/05/26 04:31:06;;;;;;;0.00;0.00;;;;;;;;;;5054210;28;20485;-93
2022/05/26 04:33:32;;;;;;;0.10;0.10;;;;;;;;;;5054082;28;20033;-93
2022/05/26 04:35:58;;;;;;;0.00;0.00;;;;;;;;;;5051651;28;20047;-93
2022/05/26 04:38:24;;;;;;;0.10;0.10;;;;;;;;;;5052623;28;20047;-93
2022/05/26 04:41:00;;;;;;;0.00;0.00;;;;;;;;;;5049830;28;20043;-94
2022/05/26 04:43:27;;;;;;;0.10;0.10;;;;;;;;;;5051826;28;20040;-94
2022/05/26 04:45:53;;;;;;;0.10;0.10;;;;;;;;;;5050721;28;20040;-92
2022/05/26 04:48:21;;;;;;;0.05;0.05;;;;;;;;;;5050822;28;20048;-93
2022/05/26 04:50:48;;;;;;;0.05;0.05;;;;;;;;;;5051648;28;20045;-92
2022/05/26 04:53:15;;;;;;;0.10;0.10;;;;;;;;;;5050803;28;20059;-92
2022/05/26 04:55:41;;;;;;;0.20;0.20;;;;;;;;;;5051259;28;20480;-93
2022/05/26 04:58:10;;;;;;;0.20;0.20;;;;;;;;;;5050761;28;20120;-92
2022/05/26 05:00:36;;;;;;;0.00;0.00;;;;;;;;;;5048880;28;20124;-91
2022/05/26 05:03:04;;;;;;;0.13;0.13;;;;;;;;;;5031337;28;20104;-90
2022/05/26 05:05:30;;;;;;;0.03;0.03;;;;;;;;;;5048549;28;20074;-91
2022/05/26 05:07:56;;;;;;;0.10;0.10;;;;;;;;;;5049096;28;20047;-92
2022/05/26 05:10:22;;;;;;;0.08;0.08;;;;;;;;;;5049794;28;20041;-91
2022/05/26 05:12:51;;;;;;;0.10;0.10;;;;;;;;;;5048857;28;20066;-92
2022/05/26 05:15:22;;;;;;;0.10;0.10;;;;;;;;;;5032373;28;20041;-93
2022/05/26 05:17:48;;;;;;;0.10;0.10;;;;;;;;;;5050597;28;20040;-92
2022/05/26 05:20:14;;;;;;;0.10;0.10;;;;;;;;;;5048499;28;20037;-92
2022/05/26 05:22:50;;;;;;;0.20;0.20;;;;;;;;;;5049462;28;20482;-92
2022/05/26 05:25:21;;;;;;;0.10;0.10;;;;;;;;;;5048100;28;20044;-93
2022/05/26 05:27:52;;;;;;;0.05;0.05;;;;;;;;;;5047014;28;20045;-93
2022/05/26 05:30:22;;;;;;;0.10;0.10;;;;;;;;;;5046348;28;20040;-92
2022/05/26 05:32:54;;;;;;;0.10;0.10;;;;;;;;;;5030778;28;20045;-93
2022/05/26 05:35:26;;;;;;;0.10;0.10;;;;;;;;;;5032914;28;20036;-91
2022/05/26 05:37:52;;;;;;;0.10;0.10;;;;;;;;;;5046067;28;20044;-93
2022/05/26 05:40:18;;;;;;;0.20;0.20;;;;;;;;;;5056704;28;20039;-92
2022/05/26 05:42:44;;;;;;;0.10;0.10;;;;;;;;;;5047057;28;20051;-93
2022/05/26 05:45:10;;;;;;;0.10;0.10;;;;;;;;;;5042792;28;20485;-93
2022/05/26 05:47:36;;;;;;;0.10;0.10;;;;;;;;;;5047221;28;20041;-91
2022/05/26 05:50:02;;;;;;;0.10;0.10;;;;;;;;;;5046236;28;20041;-92
2022/05/26 05:52:28;;;;;;;0.10;0.10;;;;;;;;;;5046089;28;20490;-92
2022/05/26 05:55:04;;;;;;;0.10;0.10;;;;;;;;;;5046382;28;20044;-92
2022/05/26 05:57:31;;;;;;;0.20;0.20;;;;;;;;;;5062662;28;20086;-92
2022/05/26 05:59:57;;;;;;;0.00;0.00;;;;;;;;;;5026797;28;20037;-91
2022/05/26 06:02:24;;;;;;;0.20;0.20;;;;;;;;;;5046186;28;20040;-91
2022/05/26 06:04:50;;;;;;;0.10;0.10;;;;;;;;;;5045699;28;20485;-91
2022/05/26 06:07:17;;;;;;;0.00;0.00;;;;;;;;;;5045146;28;20486;-92
2022/05/26 06:09:44;;;;;;;0.00;0.00;;;;;;;;;;5046405;28;20037;-91
2022/05/26 06:12:10;;;;;;;0.00;0.00;;;;;;;;;;5047507;28;20032;-92
2022/05/26 06:14:37;;;;;;;0.10;0.10;;;;;;;;;;5051191;28;20115;-92
2022/05/26 06:17:05;;;;;;;0.10;0.10;;;;;;;;;;5047188;28;20074;-91
2022/05/26 06:19:31;;;;;;;0.10;0.10;;;;;;;;;;5046570;28;20028;-92
2022/05/26 06:21:57;;;;;;;0.00;0.00;;;;;;;;;;5046129;28;20040;-92
2022/05/26 06:24:25;;;;;;;0.17;0.17;;;;;;;;;;5045025;28;20047;-91
2022/05/26 06:26:51;;;;;;;0.10;0.10;;;;;;;;;;5045326;28;20048;-92
2022/05/26 06:37:32;;;;;;;0.10;0.10;;;;;;;;;;5050513;28;20044;-92
2022/05/26 06:39:58;;;;;;;0.00;0.00;;;;;;;;;;5045913;28;20139;-92
2022/05/26 06:42:26;;;;;;;0.00;0.00;;;;;;;;;;5049223;28;20044;-92
2022/05/26 06:44:52;;;;;;;0.03;0.03;;;;;;;;;;5050491;28;20133;-92
2022/05/26 06:47:20;;;;;;;0.00;0.00;;;;;;;;;;5050774;28;20037;-92
2022/05/26 06:49:46;;;;;;;0.00;0.00;;;;;;;;;;5053620;28;20046;-93
2022/05/26 06:52:13;;;;;;;0.10;0.10;;;;;;;;;;5051555;28;20052;-93
2022/05/26 06:54:41;;;;;;;0.08;0.08;;;;;;;;;;5050110;28;20544;-92
2022/05/26 06:57:08;;;;;;;0.10;0.10;;;;;;;;;;5051084;28;20036;-91
2022/05/26 06:59:34;;;;;;;0.00;0.00;;;;;;;;;;5050115;28;20564;-92
2022/05/26 07:02:00;;;;;;;0.10;0.10;;;;;;;;;;5049963;28;20097;-92
2022/05/26 07:04:27;;;;;;;0.20;0.20;;;;;;;;;;5049137;28;20086;-92
2022/05/26 07:06:54;;;;;;;0.00;0.00;;;;;;;;;;5049155;28;20550;-92
2022/05/26 07:09:24;;;;;;;0.10;0.10;;;;;;;;;;5049876;28;20052;-93
2022/05/26 07:11:50;;;;;;;0.10;0.10;;;;;;;;;;5049762;28;20080;-92
2022/05/26 07:14:16;;;;;;;0.20;0.20;;;;;;;;;;5048788;28;20044;-91
2022/05/26 07:16:44;;;;;;;0.20;0.20;;;;;;;;;;5047510;28;20044;-92
2022/05/26 07:19:11;;;;;;;0.00;0.00;;;;;;;;;;5047822;28;20040;-90
2022/05/26 07:21:37;;;;;;;0.10;0.10;;;;;;;;;;5048619;28;20099;-92
2022/05/26 07:24:03;;;;;;;0.00;0.00;;;;;;;;;;5045762;28;20075;-92
2022/05/26 07:26:32;;;;;;;0.00;0.00;;;;;;;;;;5045223;28;20539;-91
2022/05/26 07:28:58;;;;;;;0.10;0.10;;;;;;;;;;5045840;28;20041;-91
2022/05/26 07:31:24;;;;;;;0.00;0.00;;;;;;;;;;5048457;28;20050;-90
2022/05/26 07:33:50;;;;;;;0.10;0.10;;;;;;;;;;5048261;28;20131;-91
2022/05/26 07:41:46;;;;;;;0.00;0.00;;;;;;;;;;5057410;28;20041;-91
2022/05/26 07:44:13;;;;;;;0.03;0.03;;;;;;;;;;5048104;28;20036;-91
2022/05/26 07:46:39;;;;;;;0.10;0.10;;;;;;;;;;5048091;28;20100;-91
2022/05/26 07:49:06;;;;;;;0.10;0.10;;;;;;;;;;5046786;28;20142;-91
2022/05/26 07:51:32;;;;;;;0.20;0.20;;;;;;;;;;5063681;28;20044;-91
2022/05/26 07:54:00;;;;;;;0.00;0.00;;;;;;;;;;5047959;28;20037;-91
2022/05/26 07:56:31;;;;;;;0.00;0.00;;;;;;;;;;5047138;28;20067;-90
2022/05/26 07:58:57;;;;;;;0.10;0.10;;;;;;;;;;5047294;28;20552;-91
2022/05/26 08:01:23;;;;;;;0.20;0.20;;;;;;;;;;5046604;28;20108;-91
2022/05/26 08:03:53;;;;;;;0.13;0.13;;;;;;;;;;5044672;28;20074;-91
2022/05/26 08:06:19;;;;;;;0.10;0.10;;;;;;;;;;5045904;28;20414;-90
2022/05/26 08:08:46;;;;;;;0.05;0.05;;;;;;;;;;5041142;28;20040;-91
2022/05/26 08:11:12;;;;;;;0.10;0.10;;;;;;;;;;5032867;28;20029;-92
2022/05/26 08:13:38;;;;;;;0.10;0.10;;;;;;;;;;5040411;28;20124;-92
2022/05/26 08:16:05;;;;;;;0.10;0.10;;;;;;;;;;5039331;28;20093;-92
2022/05/26 08:18:31;;;;;;;0.10;0.10;;;;;;;;;;5015373;28;20032;-91
2022/05/26 08:21:05;;;;;;;0.08;0.08;;;;;;;;;;5035305;28;20040;-91
2022/05/26 08:23:31;;;;;;;0.00;0.00;;;;;;;;;;5047607;28;20048;-90
2022/05/26 08:25:57;;;;;;;0.10;0.10;;;;;;;;;;5043152;28;20041;-91
2022/05/26 08:28:24;;;;;;;0.08;0.08;;;;;;;;;;5041789;28;20101;-91
2022/05/26 08:30:53;;;;;;;0.10;0.10;;;;;;;;;;5033909;28;20046;-93
2022/05/26 08:33:22;;;;;;;0.10;0.10;;;;;;;;;;5042863;28;20044;-91
2022/05/26 08:35:48;;;;;;;0.00;0.00;;;;;;;;;;5030539;28;20067;-91
2022/05/26 08:38:14;;;;;;;0.10;0.10;;;;;;;;;;5033887;28;20029;-91
2022/05/26 08:40:58;;;;;;;0.10;0.10;;;;;;;;;;5043566;28;20028;-91
2022/05/26 08:43:26;;;;;;;0.05;0.05;;;;;;;;;;5042999;28;20059;-90
2022/05/26 08:45:54;;;;;;;0.10;0.10;;;;;;;;;;5033880;28;20045;-90
2022/05/26 08:48:42;;;;;;;0.00;0.00;;;;;;;;;;5041620;28;20040;-91
2022/05/26 08:51:10;;;;;;;0.10;0.10;;;;;;;;;;5041964;28;20042;-90
2022/05/26 08:53:42;;;;;;;0.00;0.00;;;;;;;;;;5040884;28;20040;-89
2022/05/26 08:56:12;;;;;;;0.00;0.00;;;;;;;;;;5037091;28;20028;-91
2022/05/26 08:58:46;;;;;;;0.05;0.05;;;;;;;;;;5043005;28;20115;-90
2022/05/26 09:01:14;;;;;;;0.10;0.10;;;;;;;;;;5045228;28;20066;-90
2022/05/26 09:03:40;;;;;;;0.00;0.00;;;;;;;;;;5039850;28;20064;-91
2022/05/26 09:06:09;;;;;;;0.08;0.08;;;;;;;;;;5040323;28;20048;-90
2022/05/26 09:14:23;;;;;;;0.10;0.10;;;;;;;;;;5056204;28;20040;-90
2022/05/26 09:16:50;;;;;;;0.08;0.08;;;;;;;;;;5044036;28;20028;-90
2022/05/26 09:19:19;;;;;;;0.00;0.00;;;;;;;;;;5041673;28;20035;-90
2022/05/26 09:21:46;;;;;;;0.13;0.13;;;;;;;;;;5039457;28;20066;-90
2022/05/26 09:24:16;;;;;;;0.05;0.05;;;;;;;;;;5034829;28;20036;-90
2022/05/26 09:26:49;;;;;;;0.10;0.10;;;;;;;;;;5038471;28;20147;-91
2022/05/26 09:29:15;;;;;;;0.20;0.20;;;;;;;;;;5040324;28;20048;-87
2022/05/26 09:31:48;;;;;;;0.00;0.00;;;;;;;;;;5036410;28;20402;-90
2022/05/26 09:34:14;;;;;;;0.05;0.05;;;;;;;;;;5060342;28;20044;-90
2022/05/26 09:36:52;;;;;;;0.08;0.08;;;;;;;;;;5045791;28;20051;-93
2022/05/26 09:39:26;;;;;;;0.10;0.10;;;;;;;;;;5046701;28;20063;-92
2022/05/26 09:41:56;;;;;;;0.03;0.03;;;;;;;;;;5043262;28;20115;-91
2022/05/26 09:44:28;;;;;;;0.00;0.00;;;;;;;;;;5043461;28;20036;-93
2022/05/26 09:46:56;;;;;;;0.10;0.10;;;;;;;;;;5041367;28;20053;-89
2022/05/26 09:49:25;;;;;;;0.00;0.00;;;;;;;;;;5037565;28;20086;-95
2022/05/26 09:52:03;;;;;;;0.20;0.20;;;;;;;;;;5038424;28;20463;-94
2022/05/26 09:54:32;;;;;;;0.10;0.10;;;;;;;;;;5051052;28;20044;-95
2022/05/26 09:56:58;;;;;;;0.00;0.00;;;;;;;;;;5045086;28;20051;-95
2022/05/26 09:59:25;;;;;;;0.10;0.10;;;;;;;;;;5043240;28;20067;-92
2022/05/26 10:01:57;;;;;;;0.10;0.10;;;;;;;;;;5048756;28;20047;-95
2022/05/26 10:04:23;;;;;;;0.00;0.00;;;;;;;;;;5047717;28;20041;-95
2022/05/26 10:06:49;;;;;;;0.00;0.00;;;;;;;;;;5043070;28;20039;-94
2022/05/26 10:09:27;;;;;;;0.00;0.00;;;;;;;;;;5036882;28;20044;-96
2022/05/26 10:12:01;;;;;;;0.13;0.13;;;;;;;;;;5045419;28;20064;-95
2022/05/26 10:14:27;;;;;;;0.00;0.00;;;;;;;;;;5045691;28;20043;-95
2022/05/26 10:17:19;;;;;;;0.10;0.10;;;;;;;;;;5044924;28;20036;-96
2022/05/26 10:20:08;;;;;;;0.08;0.08;;;;;;;;;;5013591;28;20049;-91
2022/05/26 10:22:47;;;;;;;0.10;0.10;;;;;;;;;;5036015;28;20037;-91
2022/05/26 10:25:23;;;;;;;0.00;0.00;;;;;;;;;;5047930;28;20032;-89
2022/05/26 10:28:20;;;;;;;0.08;0.08;;;;;;;;;;5041459;28;20072;-90
2022/05/26 10:30:53;;;;;;;0.00;0.00;;;;;;;;;;5045326;28;20036;-90
2022/05/26 10:33:24;;;;;;;0.10;0.10;;;;;;;;;;5043661;28;20049;-90
2022/05/26 10:35:54;;;;;;;0.00;0.00;;;;;;;;;;5043223;28;20096;-89
2022/05/26 10:38:27;;;;;;;0.10;0.10;;;;;;;;;;5053690;28;20120;-89
2022/05/26 10:40:56;;;;;;;0.00;0.00;;;;;;;;;;5040931;28;20040;-88
2022/05/26 10:43:27;;;;;;;0.10;0.10;;;;;;;;;;5035653;28;20076;-89
2022/05/26 10:45:54;;;;;;;0.00;0.00;;;;;;;;;;5020752;28;20083;-89
2022/05/26 10:48:37;;;;;;;0.10;0.10;;;;;;;;;;5034316;28;20044;-89
2022/05/26 10:51:10;;;;;;;0.00;0.00;;;;;;;;;;5041426;28;20135;-89
2022/05/26 10:53:49;;;;;;;0.00;0.00;;;;;;;;;;5054520;28;20032;-90
2022/05/26 10:56:23;;;;;;;0.10;0.10;;;;;;;;;;5041092;28;20062;-89
2022/05/26 10:59:09;;;;;;;0.00;0.00;;;;;;;;;;5045129;28;20127;-89
2022/05/26 11:01:39;;;;;;;0.05;0.05;;;;;;;;;;5005333;28;20433;-89
2022/05/26 11:04:10;;;;;;;0.20;0.20;;;;;;;;;;5047314;28;20044;-89
2022/05/26 11:06:37;;;;;;;0.03;0.03;;;;;;;;;;5038068;28;20040;-89
2022/05/26 11:09:13;;;;;;;0.10;0.10;;;;;;;;;;5055687;28;20032;-89
2022/05/26 11:11:40;;;;;;;0.10;0.10;;;;;;;;;;5039447;28;20322;-89
2022/05/26 11:14:10;;;;;;;0.00;0.00;;;;;;;;;;5038400;28;20037;-89
2022/05/26 11:19:39;;;;;;;0.10;0.10;;;;;;;;;;5047429;28;20096;-89
2022/05/26 11:22:06;;;;;;;0.03;0.03;;;;;;;;;;5038145;28;20033;-90
2022/05/26 11:24:33;;;;;;;0.10;0.10;;;;;;;;;;5037583;28;20120;-89
2022/05/26 11:27:05;;;;;;;0.10;0.10;;;;;;;;;;5029863;28;20041;-89
2022/05/26 11:29:37;;;;;;;0.10;0.10;;;;;;;;;;5044417;28;20046;-89
2022/05/26 11:37:39;;;;;;;0.10;0.10;;;;;;;;;;5055809;28;20037;-90
2022/05/26 11:40:07;;;;;;;0.00;0.00;;;;;;;;;;5035350;28;20083;-89
2022/05/26 11:42:39;;;;;;;0.00;0.00;;;;;;;;;;5038102;28;20120;-89
2022/05/26 11:45:08;;;;;;;0.10;0.10;;;;;;;;;;5041640;28;20033;-90
2022/05/26 11:47:47;;;;;;;0.05;0.05;;;;;;;;;;5040855;28;20037;-89
2022/05/26 11:50:19;;;;;;;0.10;0.10;;;;;;;;;;5038688;28;20064;-90
2022/05/26 11:52:54;;;;;;;0.10;0.10;;;;;;;;;;5052793;28;20106;-90
2022/05/26 11:55:20;;;;;;;0.10;0.10;;;;;;;;;;5044328;28;20405;-90
2022/05/26 11:57:46;;;;;;;0.10;0.10;;;;;;;;;;5037543;28;20061;-89
2022/05/26 12:00:17;;;;;;;0.10;0.10;;;;;;;;;;5037361;28;20036;-90
2022/05/26 12:02:45;;;;;;;0.05;0.05;;;;;;;;;;5037388;28;20067;-89
2022/05/26 12:05:29;;;;;;;0.05;0.00;;;;;;;;;;5027034;28;20044;-89
2022/05/26 12:07:59;;;;;;;0.00;0.00;;;;;;;;;;5040530;28;20098;-89
2022/05/26 12:10:30;;;;;;;0.00;0.00;;;;;;;;;;5042840;28;20104;-88
2022/05/26 12:13:15;;;;;;;0.00;0.00;;;;;;;;;;5040369;28;20036;-89
2022/05/26 12:16:01;;;;;;;0.10;0.10;;;;;;;;;;5056033;28;20029;-88
2022/05/26 12:18:36;;;;;;;0.10;0.10;;;;;;;;;;5044030;28;20053;-89
2022/05/26 12:21:11;;;;;;;0.00;0.00;;;;;;;;;;5039418;28;20795;-89
2022/05/26 12:23:37;;;;;;;0.00;0.00;;;;;;;;;;5041032;28;20032;-88
2022/05/26 12:26:24;;;;;;;1.33;1.23;;;;;;;;;;5042640;28;20047;-89
2022/05/26 12:28:50;;;;;;;0.00;0.00;;;;;;;;;;5058559;28;20053;-89
2022/05/26 12:31:16;;;;;;;0.00;0.00;;;;;;;;;;5056853;28;20454;-89
2022/05/26 12:33:51;;;;;;;0.20;0.20;;;;;;;;;;5045643;28;20041;-90
2022/05/26 12:36:30;;;;;;;0.10;0.10;;;;;;;;;;5057482;28;20048;-89
2022/05/26 12:39:14;;;;;;;0.00;0.00;;;;;;;;;;5044821;28;20405;-89
2022/05/26 12:41:43;;;;;;;0.00;0.00;;;;;;;;;;5044402;28;20036;-89
2022/05/26 12:44:28;;;;;;;0.10;0.10;;;;;;;;;;5037508;28;20056;-90
2022/05/26 12:47:08;;;;;;;0.00;0.00;;;;;;;;;;5058759;28;20044;-89
2022/05/26 12:49:54;;;;;;;0.10;0.10;;;;;;;;;;5038161;28;20045;-90
2022/05/26 12:52:37;;;;;;;0.00;0.00;;;;;;;;;;5039325;28;20102;-90
2022/05/26 12:55:22;;;;;;;0.00;0.00;;;;;;;;;;5037232;28;20044;-89
2022/05/26 12:58:09;;;;;;;0.00;0.00;;;;;;;;;;5036353;28;20076;-90
2022/05/26 13:00:35;;;;;;;0.10;0.10;;;;;;;;;;5027962;28;20040;-89
2022/05/26 13:03:07;;;;;;;0.00;0.00;;;;;;;;;;5045621;28;20040;-90
2022/05/26 13:05:49;;;;;;;0.00;0.00;;;;;;;;;;5045798;28;20506;-90
2022/05/26 13:08:23;;;;;;;0.10;0.10;;;;;;;;;;5026259;28;20480;-90
2022/05/26 13:10:51;;;;;;;0.00;0.00;;;;;;;;;;5046100;28;20044;-91
2022/05/26 13:13:20;;;;;;;0.10;0.10;;;;;;;;;;5049844;28;20041;-91
2022/05/26 13:15:46;;;;;;;0.10;0.10;;;;;;;;;;5039858;28;20048;-89
2022/05/26 13:18:16;;;;;;;0.10;0.10;;;;;;;;;;5055114;28;20079;-89
2022/05/26 13:20:42;;;;;;;0.00;0.00;;;;;;;;;;5042331;28;20107;-89
2022/05/26 13:23:13;;;;;;;0.10;0.10;;;;;;;;;;5062281;28;20044;-90
2022/05/26 13:25:39;;;;;;;0.00;0.00;;;;;;;;;;5044716;28;20047;-90
2022/05/26 13:28:07;;;;;;;0.00;0.00;;;;;;;;;;5044329;28;20052;-89
2022/05/26 13:34:01;;;;;;;0.03;0.03;;;;;;;;;;5055106;28;20045;-91
2022/05/26 13:36:42;;;;;;;0.13;0.13;;;;;;;;;;5035196;28;20045;-90
2022/05/26 13:39:16;;;;;;;0.10;0.10;;;;;;;;;;5057333;28;20044;-90
2022/05/26 13:41:51;;;;;;;0.03;0.03;;;;;;;;;;5036022;28;20498;-90
2022/05/26 13:44:35;;;;;;;0.00;0.00;;;;;;;;;;5039007;28;20044;-90
2022/05/26 13:47:04;;;;;;;0.00;0.00;;;;;;;;;;5052839;28;20072;-90
2022/05/26 13:49:39;;;;;;;0.00;0.00;;;;;;;;;;5037973;28;20033;-88
2022/05/26 13:52:08;;;;;;;0.00;0.00;;;;;;;;;;5038696;28;20104;-90
2022/05/26 13:54:41;;;;;;;0.10;0.10;;;;;;;;;;5049666;28;20037;-90
2022/05/26 13:57:28;;;;;;;0.00;0.00;;;;;;;;;;5027221;28;20032;-89
2022/05/26 13:59:57;;;;;;;0.10;0.10;;;;;;;;;;5038486;28;20082;-89
2022/05/26 14:02:31;;;;;;;0.00;0.00;;;;;;;;;;5057204;28;20047;-90
2022/05/26 14:05:12;;;;;;;0.10;0.10;;;;;;;;;;5042575;28;20520;-90
2022/05/26 14:07:40;;;;;;;0.10;0.10;;;;;;;;;;5038526;28;20040;-90
2022/05/26 14:10:06;;;;;;;0.10;0.10;;;;;;;;;;5040489;28;20040;-90
2022/05/26 14:12:32;;;;;;;0.00;0.00;;;;;;;;;;5032340;28;20063;-90
2022/05/26 14:14:58;;;;;;;0.10;0.10;;;;;;;;;;5028922;28;20037;-90
2022/05/26 14:17:28;;;;;;;0.10;0.10;;;;;;;;;;5036089;28;20100;-90
2022/05/26 14:19:56;;;;;;;0.00;0.00;;;;;;;;;;5039670;28;20043;-89
2022/05/26 14:22:29;;;;;;;0.00;0.00;;;;;;;;;;5036724;28;20097;-90
2022/05/26 14:24:55;;;;;;;0.10;0.10;;;;;;;;;;5034151;28;20039;-90
2022/05/26 14:27:23;;;;;;;0.10;0.10;;;;;;;;;;5036082;28;20124;-90
2022/05/26 14:29:54;;;;;;;0.03;0.03;;;;;;;;;;5038978;28;20056;-90
2022/05/26 14:32:38;;;;;;;0.08;0.08;;;;;;;;;;5038821;28;20047;-91
2022/05/26 14:35:12;;;;;;;0.03;0.03;;;;;;;;;;5031453;28;20037;-90
2022/05/26 14:37:40;;;;;;;0.10;0.10;;;;;;;;;;5035887;28;20093;-89
2022/05/26 14:40:06;;;;;;;0.00;0.00;;;;;;;;;;5035436;28;20086;-89
2022/05/26 14:42:34;;;;;;;0.10;0.10;;;;;;;;;;5037644;28;20456;-90
2022/05/26 14:45:05;;;;;;;0.22;0.22;;;;;;;;;;5055087;28;20044;-90
2022/05/26 14:47:31;;;;;;;0.03;0.03;;;;;;;;;;5022464;28;20039;-90
2022/05/26 14:50:20;;;;;;;0.10;0.10;;;;;;;;;;5057057;28;20062;-90
2022/05/26 14:52:50;;;;;;;0.00;0.00;;;;;;;;;;5033018;28;20052;-90
2022/05/26 14:55:29;;;;;;;0.10;0.10;;;;;;;;;;5033136;28;20036;-89
2022/05/26 14:58:01;;;;;;;0.10;0.10;;;;;;;;;;5028748;28;20529;-88
2022/05/26 15:00:28;;;;;;;0.10;0.10;;;;;;;;;;5024979;28;20061;-89
2022/05/26 15:02:56;;;;;;;0.00;0.00;;;;;;;;;;5027666;28;20037;-89
2022/05/26 15:05:29;;;;;;;0.00;0.00;;;;;;;;;;5037874;28;20076;-88
2022/05/26 15:07:55;;;;;;;0.00;0.00;;;;;;;;;;5035120;28;20056;-89
2022/05/26 15:10:21;;;;;;;0.10;0.10;;;;;;;;;;5037170;28;20037;-89
2022/05/26 15:12:47;;;;;;;0.10;0.10;;;;;;;;;;5035952;28;20037;-89
2022/05/26 15:15:14;;;;;;;0.00;0.00;;;;;;;;;;5032156;28;20037;-89
2022/05/26 15:17:41;;;;;;;0.00;0.00;;;;;;;;;;5051651;28;20044;-88
2022/05/26 15:20:10;;;;;;;0.10;0.10;;;;;;;;;;5039479;28;20102;-89
2022/05/26 15:22:38;;;;;;;0.10;0.10;;;;;;;;;;5057753;28;20033;-89
2022/05/26 15:25:05;;;;;;;0.00;0.00;;;;;;;;;;5027815;28;20074;-88
2022/05/26 15:27:31;;;;;;;0.08;0.08;;;;;;;;;;5036814;28;20047;-89
2022/05/26 15:29:58;;;;;;;0.10;0.10;;;;;;;;;;5037078;28;20035;-88
2022/05/26 15:32:28;;;;;;;0.10;0.10;;;;;;;;;;5025562;28;20052;-88
2022/05/26 15:34:55;;;;;;;0.10;0.10;;;;;;;;;;5049131;28;20048;-88
2022/05/26 15:37:21;;;;;;;0.08;0.08;;;;;;;;;;5041269;28;20120;-88
2022/05/26 15:39:47;;;;;;;0.00;0.00;;;;;;;;;;5033436;28;20051;-89
2022/05/26 15:42:13;;;;;;;0.05;0.05;;;;;;;;;;5037543;28;20037;-88